Time;durP1;ratioP1;P1;durP2;ratioP2;P2;SDS_P1;SDS_P2;PMS_P1;PMS_P2;Temp;Humidity;BMP_temperature;BMP_pressure;BME280_temperature;BME280_humidity;BME280_pressure;Samples;Min_cycle;Max_cycle;Signal;HPM_P1;HPM_P2
2021/04/16 00:01:33;;;;;;;2.95;1.50;;;3.90;99.90;;;;;;5053598;28;20495;-43
2021/04/16 00:03:59;;;;;;;2.33;1.30;;;3.90;99.90;;;;;;5052832;28;20114;-43
2021/04/16 00:06:24;;;;;;;2.33;1.10;;;3.90;99.90;;;;;;5053555;28;20048;-43
2021/04/16 00:08:50;;;;;;;3.97;1.00;;;3.80;99.90;;;;;;5053541;28;20064;-45
2021/04/16 00:11:25;;;;;;;1.80;1.10;;;3.80;99.90;;;;;;5052665;28;20101;-43
2021/04/16 00:13:51;;;;;;;3.53;1.27;;;3.80;99.90;;;;;;5066172;28;20025;-44
2021/04/16 00:16:21;;;;;;;4.82;1.63;;;3.80;99.90;;;;;;5073195;28;20035;-43
2021/04/16 00:18:47;;;;;;;3.88;1.52;;;3.80;99.90;;;;;;5073206;28;20074;-50
2021/04/16 00:21:14;;;;;;;4.38;1.38;;;3.80;99.90;;;;;;5073467;28;20565;-50
2021/04/16 00:23:40;;;;;;;4.60;1.25;;;3.70;99.90;;;;;;5055296;28;20483;-49
2021/04/16 00:26:06;;;;;;;4.15;1.20;;;3.70;99.90;;;;;;5039306;28;20074;-47
2021/04/16 00:28:32;;;;;;;3.38;1.25;;;3.70;99.90;;;;;;5035341;28;20029;-50
2021/04/16 00:31:01;;;;;;;2.40;1.10;;;3.80;99.90;;;;;;5039441;28;20029;-49
2021/04/16 00:33:27;;;;;;;4.03;1.60;;;3.80;99.90;;;;;;5052854;28;20040;-50
2021/04/16 00:35:52;;;;;;;2.15;1.00;;;3.80;99.90;;;;;;5053078;28;20480;-45
2021/04/16 00:38:19;;;;;;;4.65;1.55;;;3.80;99.90;;;;;;5053407;28;20044;-45
2021/04/16 00:40:52;;;;;;;3.17;1.23;;;3.80;99.90;;;;;;5052876;28;20033;-50
2021/04/16 00:43:21;;;;;;;5.18;1.00;;;3.80;99.90;;;;;;5053910;28;20433;-50
2021/04/16 00:45:47;;;;;;;2.03;1.00;;;3.80;99.90;;;;;;5053783;28;20024;-46
2021/04/16 00:48:26;;;;;;;4.00;1.27;;;3.80;99.90;;;;;;5053543;28;20364;-47
2021/04/16 00:50:56;;;;;;;4.13;1.42;;;3.80;99.90;;;;;;5048978;28;20025;-46
2021/04/16 00:53:23;;;;;;;3.83;1.00;;;3.80;99.90;;;;;;5033764;28;20647;-48
2021/04/16 00:55:51;;;;;;;3.75;1.17;;;3.80;99.90;;;;;;5032855;28;20037;-51
2021/04/16 00:58:19;;;;;;;2.67;1.40;;;3.80;99.90;;;;;;5033639;28;20079;-47
2021/04/16 01:00:48;;;;;;;3.10;1.48;;;3.80;99.90;;;;;;5033577;28;20018;-48
2021/04/16 01:03:14;;;;;;;2.38;1.23;;;3.80;99.90;;;;;;5033478;28;20073;-46
2021/04/16 01:05:39;;;;;;;4.35;1.20;;;3.80;99.90;;;;;;5033516;28;20068;-48
2021/04/16 01:08:06;;;;;;;6.50;1.30;;;3.80;99.90;;;;;;5052839;28;20095;-48
2021/04/16 01:10:32;;;;;;;6.50;1.30;;;3.80;99.90;;;;;;5052573;28;20025;-47
2021/04/16 01:12:57;;;;;;;2.30;1.10;;;3.70;99.90;;;;;;5053254;28;20032;-50
2021/04/16 01:15:31;;;;;;;8.52;1.27;;;3.70;99.90;;;;;;5052542;28;20025;-49
2021/04/16 01:18:03;;;;;;;2.75;1.20;;;3.70;99.90;;;;;;5052816;28;20029;-50
2021/04/16 01:20:32;;;;;;;5.80;2.55;;;3.80;99.90;;;;;;5053162;28;20032;-49
2021/04/16 01:23:03;;;;;;;2.30;1.27;;;3.80;99.90;;;;;;5053143;28;20017;-50
2021/04/16 01:25:30;;;;;;;4.00;1.30;;;3.80;99.90;;;;;;5052122;28;20040;-49
2021/04/16 01:27:56;;;;;;;2.17;1.35;;;3.80;99.90;;;;;;5053007;28;20070;-45
2021/04/16 01:30:26;;;;;;;4.18;1.20;;;3.80;99.90;;;;;;5052970;28;20527;-48
2021/04/16 01:32:52;;;;;;;4.70;1.33;;;3.80;99.90;;;;;;5052790;28;20120;-47
2021/04/16 01:35:26;;;;;;;2.58;1.05;;;3.80;99.90;;;;;;5052952;28;20472;-50
2021/04/16 01:37:52;;;;;;;3.80;1.25;;;3.80;99.90;;;;;;5052772;28;20021;-48
2021/04/16 01:40:19;;;;;;;5.00;1.02;;;3.80;99.90;;;;;;5051682;28;20476;-46
2021/04/16 01:42:44;;;;;;;2.90;0.90;;;3.80;99.90;;;;;;5052842;28;20013;-51
2021/04/16 01:45:24;;;;;;;1.58;1.20;;;3.80;99.90;;;;;;5052687;28;20349;-46
2021/04/16 01:48:00;;;;;;;4.03;1.15;;;3.80;99.90;;;;;;5052704;28;20075;-48
2021/04/16 01:50:28;;;;;;;3.60;1.25;;;3.80;99.90;;;;;;5051388;28;20029;-46
2021/04/16 01:52:57;;;;;;;3.13;0.90;;;3.80;99.90;;;;;;5032699;28;20481;-51
2021/04/16 01:55:24;;;;;;;3.75;0.90;;;3.80;99.90;;;;;;5014139;28;20025;-48
2021/04/16 01:57:49;;;;;;;3.08;1.20;;;3.80;99.90;;;;;;5032660;28;20044;-47
2021/04/16 02:00:28;;;;;;;5.25;1.20;;;3.80;99.90;;;;;;5032580;28;20029;-47
2021/04/16 02:02:54;;;;;;;3.05;1.00;;;3.80;99.90;;;;;;5032389;28;20029;-51
2021/04/16 02:05:20;;;;;;;2.20;1.20;;;3.80;99.90;;;;;;5032501;28;20188;-49
2021/04/16 02:07:45;;;;;;;4.45;1.23;;;3.80;99.90;;;;;;5049360;28;20384;-49
2021/04/16 02:10:12;;;;;;;3.42;1.10;;;3.80;99.90;;;;;;5051430;28;20036;-48
2021/04/16 02:12:38;;;;;;;4.13;1.48;;;3.80;99.90;;;;;;5052574;28;20534;-49
2021/04/16 02:15:04;;;;;;;1.95;0.80;;;3.80;99.90;;;;;;5052319;28;20037;-50
2021/04/16 02:17:30;;;;;;;4.15;1.00;;;3.80;99.90;;;;;;5052426;28;20029;-46
2021/04/16 02:19:58;;;;;;;2.65;0.93;;;3.80;99.90;;;;;;5052048;28;20079;-48
2021/04/16 02:22:27;;;;;;;2.78;1.02;;;3.90;99.90;;;;;;5052402;28;20029;-47
2021/04/16 02:24:53;;;;;;;4.47;1.23;;;3.80;99.90;;;;;;5051329;28;20032;-50
2021/04/16 02:27:21;;;;;;;4.03;1.40;;;3.90;99.90;;;;;;5053396;28;20024;-48
2021/04/16 02:29:47;;;;;;;6.50;1.35;;;3.90;99.90;;;;;;5038572;28;20366;-47
2021/04/16 02:32:12;;;;;;;2.65;1.10;;;3.90;99.90;;;;;;5056347;28;20044;-50
2021/04/16 02:34:39;;;;;;;3.30;1.27;;;3.90;99.90;;;;;;5056023;28;20021;-45
2021/04/16 02:37:07;;;;;;;2.83;1.00;;;3.90;99.90;;;;;;5056277;28;20478;-50
2021/04/16 02:39:33;;;;;;;4.93;1.27;;;3.90;99.90;;;;;;5055378;28;20029;-49
2021/04/16 02:41:59;;;;;;;4.15;1.13;;;3.90;99.90;;;;;;5056195;28;20021;-48
2021/04/16 02:44:25;;;;;;;2.55;0.98;;;3.90;99.90;;;;;;5056148;28;20025;-45
2021/04/16 02:46:53;;;;;;;1.98;1.05;;;3.90;99.90;;;;;;5056039;28;20059;-43
2021/04/16 02:49:19;;;;;;;1.85;0.98;;;3.90;99.90;;;;;;5055846;28;20032;-47
2021/04/16 02:51:44;;;;;;;3.97;1.15;;;3.90;99.90;;;;;;5044187;28;20033;-46
2021/04/16 02:54:10;;;;;;;2.53;1.05;;;3.90;99.90;;;;;;5034997;28;20129;-44
2021/04/16 02:56:36;;;;;;;3.55;0.90;;;3.90;99.90;;;;;;5035978;28;20108;-50
2021/04/16 02:59:02;;;;;;;3.95;1.00;;;3.90;99.90;;;;;;5035953;28;20543;-47
2021/04/16 03:01:28;;;;;;;4.88;0.98;;;4.00;99.90;;;;;;5035830;28;20022;-49
2021/04/16 03:03:54;;;;;;;4.78;1.17;;;4.00;99.90;;;;;;5035915;28;20050;-47
2021/04/16 03:06:20;;;;;;;8.40;1.20;;;4.00;99.90;;;;;;5040552;28;20059;-49
2021/04/16 03:08:51;;;;;;;3.65;1.10;;;4.00;99.90;;;;;;5055754;28;20025;-45
2021/04/16 03:11:16;;;;;;;2.65;1.40;;;4.00;99.90;;;;;;5055438;28;20017;-52
2021/04/16 03:13:42;;;;;;;1.60;0.75;;;4.00;99.90;;;;;;5055659;28;20388;-48
2021/04/16 03:16:07;;;;;;;6.60;1.30;;;4.00;99.90;;;;;;5055417;28;20104;-46
2021/04/16 03:18:33;;;;;;;4.90;1.10;;;4.00;99.90;;;;;;5055478;28;20040;-45
2021/04/16 03:20:58;;;;;;;4.22;1.10;;;3.90;99.90;;;;;;5055304;28;20108;-44
2021/04/16 03:23:24;;;;;;;2.33;0.82;;;3.90;99.90;;;;;;5055493;28;20017;-49
2021/04/16 03:25:49;;;;;;;4.32;1.23;;;3.90;99.90;;;;;;5054526;28;20036;-47
2021/04/16 03:28:15;;;;;;;4.88;1.23;;;3.90;99.90;;;;;;5055344;28;20496;-51
2021/04/16 03:30:41;;;;;;;4.13;1.08;;;3.90;99.90;;;;;;5055215;28;20037;-49
2021/04/16 03:33:06;;;;;;;2.22;1.20;;;3.90;99.90;;;;;;5055134;28;20032;-47
2021/04/16 03:35:32;;;;;;;3.35;1.08;;;3.90;99.90;;;;;;5055209;28;20029;-46
2021/04/16 03:37:58;;;;;;;4.07;1.35;;;3.90;99.90;;;;;;5055108;28;20033;-46
2021/04/16 03:40:27;;;;;;;4.03;1.15;;;3.90;99.90;;;;;;5053067;28;20025;-46
2021/04/16 03:42:53;;;;;;;3.88;1.15;;;3.90;99.90;;;;;;5055118;28;20036;-45
2021/04/16 03:45:19;;;;;;;5.10;1.30;;;3.90;99.90;;;;;;5054800;28;20392;-46
2021/04/16 03:47:45;;;;;;;1.55;1.45;;;3.80;99.90;;;;;;5037171;28;20031;-45
2021/04/16 03:50:18;;;;;;;2.78;1.10;;;3.90;99.90;;;;;;5054654;28;20044;-45
2021/04/16 03:52:43;;;;;;;6.70;1.40;;;3.90;99.90;;;;;;5035016;28;20072;-46
2021/04/16 03:55:10;;;;;;;3.95;1.20;;;4.00;99.90;;;;;;5033852;28;20025;-48
2021/04/16 03:57:36;;;;;;;3.10;1.10;;;4.00;99.90;;;;;;5034961;28;20022;-46
2021/04/16 04:00:04;;;;;;;3.45;1.77;;;4.00;99.90;;;;;;5034595;28;20022;-46
2021/04/16 04:02:30;;;;;;;3.63;1.73;;;4.00;99.90;;;;;;5034988;28;20404;-46
2021/04/16 04:04:55;;;;;;;5.45;0.85;;;4.00;99.90;;;;;;5034614;28;20041;-45
2021/04/16 04:07:21;;;;;;;3.45;1.30;;;4.10;99.90;;;;;;5047516;28;20369;-44
2021/04/16 04:09:46;;;;;;;4.13;1.45;;;4.10;99.90;;;;;;5053681;28;20036;-45
2021/04/16 04:12:13;;;;;;;6.25;1.95;;;4.10;99.90;;;;;;5052370;28;20067;-49
2021/04/16 04:14:39;;;;;;;4.00;1.50;;;4.10;99.90;;;;;;5049829;28;20020;-49
2021/04/16 04:17:05;;;;;;;5.20;1.48;;;4.10;99.90;;;;;;5054136;28;20028;-47
2021/04/16 04:19:32;;;;;;;5.43;1.20;;;4.10;99.90;;;;;;5054314;28;20036;-47
2021/04/16 04:21:59;;;;;;;7.78;1.38;;;4.20;99.90;;;;;;5054055;28;20013;-51
2021/04/16 04:24:25;;;;;;;5.10;1.83;;;4.20;99.90;;;;;;5053238;28;20113;-48
2021/04/16 04:26:51;;;;;;;3.30;1.33;;;4.20;99.90;;;;;;5054131;28;20422;-50
2021/04/16 04:29:20;;;;;;;3.53;1.40;;;4.20;99.90;;;;;;5035898;28;20025;-51
2021/04/16 04:31:48;;;;;;;6.47;1.20;;;4.30;99.90;;;;;;5053902;28;20108;-49
2021/04/16 04:34:20;;;;;;;4.07;1.60;;;4.30;99.90;;;;;;5053901;28;20032;-50
2021/04/16 04:36:47;;;;;;;3.35;1.35;;;4.30;99.90;;;;;;5053719;28;20025;-49
2021/04/16 04:39:13;;;;;;;4.18;1.30;;;4.30;99.90;;;;;;5052947;28;20029;-51
2021/04/16 04:41:39;;;;;;;3.33;1.50;;;4.40;99.90;;;;;;5053793;28;20379;-53
2021/04/16 04:44:05;;;;;;;4.68;1.30;;;4.40;99.90;;;;;;5053970;28;20021;-51
2021/04/16 04:46:31;;;;;;;6.70;1.70;;;4.40;99.90;;;;;;5053962;28;20108;-48
2021/04/16 04:48:57;;;;;;;2.97;1.40;;;4.40;99.90;;;;;;5053969;28;20109;-49
2021/04/16 04:51:22;;;;;;;2.78;1.23;;;4.50;99.90;;;;;;5040865;28;20032;-51
2021/04/16 04:53:48;;;;;;;3.30;1.48;;;4.50;99.90;;;;;;5030614;28;20030;-49
2021/04/16 04:56:13;;;;;;;5.50;1.83;;;4.60;99.90;;;;;;5033295;28;20037;-46
2021/04/16 04:58:39;;;;;;;3.53;1.30;;;4.60;99.90;;;;;;5033595;28;20079;-51
2021/04/16 05:01:04;;;;;;;4.82;1.30;;;4.70;99.90;;;;;;5033561;28;20392;-47
2021/04/16 05:03:30;;;;;;;6.60;1.30;;;4.80;99.90;;;;;;5033489;28;20117;-48
2021/04/16 05:05:55;;;;;;;2.88;1.23;;;4.80;99.90;;;;;;5034995;28;20527;-47
2021/04/16 05:08:21;;;;;;;6.70;1.45;;;4.80;99.90;;;;;;5035374;28;20035;-44
2021/04/16 05:10:46;;;;;;;6.07;1.55;;;4.80;99.90;;;;;;5052325;28;20531;-50
2021/04/16 05:13:12;;;;;;;4.80;1.80;;;4.80;99.90;;;;;;5053124;28;20032;-49
2021/04/16 05:15:37;;;;;;;6.38;1.50;;;4.90;99.90;;;;;;5053264;28;20152;-46
2021/04/16 05:18:03;;;;;;;5.60;1.60;;;4.90;99.90;;;;;;5053165;28;20070;-49
2021/04/16 05:20:29;;;;;;;6.53;1.95;;;4.90;99.90;;;;;;5053148;28;20060;-47
2021/04/16 05:22:54;;;;;;;4.95;1.52;;;4.90;99.90;;;;;;5034877;28;20032;-50
2021/04/16 05:25:20;;;;;;;3.67;1.40;;;5.00;99.90;;;;;;5051954;28;20028;-48
2021/04/16 05:27:46;;;;;;;8.07;2.33;;;5.10;99.90;;;;;;5052878;28;20112;-50
2021/04/16 05:30:12;;;;;;;3.65;1.45;;;5.10;99.90;;;;;;5052961;28;20067;-48
2021/04/16 05:32:38;;;;;;;5.28;1.20;;;5.30;99.90;;;;;;5052737;28;20025;-46
2021/04/16 05:35:04;;;;;;;5.90;1.40;;;5.30;99.90;;;;;;5052443;28;20032;-50
2021/04/16 05:37:30;;;;;;;5.55;1.45;;;5.40;99.90;;;;;;5034869;28;20384;-45
2021/04/16 05:39:56;;;;;;;5.75;1.65;;;5.40;99.90;;;;;;5052022;28;20021;-50
2021/04/16 05:42:21;;;;;;;10.38;1.58;;;5.40;99.90;;;;;;5052520;28;20135;-46
2021/04/16 05:44:47;;;;;;;3.78;1.75;;;5.50;99.90;;;;;;5052776;28;20492;-48
2021/04/16 05:47:12;;;;;;;6.72;1.67;;;5.50;99.90;;;;;;5052595;28;20041;-48
2021/04/16 05:49:38;;;;;;;4.40;1.42;;;5.60;99.90;;;;;;5052860;28;20423;-45
2021/04/16 05:52:04;;;;;;;6.53;1.50;;;5.80;99.90;;;;;;5020083;28;20079;-49
2021/04/16 05:54:29;;;;;;;4.15;1.67;;;5.90;99.90;;;;;;5032549;28;20076;-47
2021/04/16 05:56:55;;;;;;;2.97;1.27;;;6.10;99.90;;;;;;5032291;28;20109;-48
2021/04/16 05:59:20;;;;;;;10.10;1.80;;;6.20;99.30;;;;;;5032663;28;20440;-48
2021/04/16 06:01:46;;;;;;;2.67;1.23;;;6.30;98.80;;;;;;5031705;28;20072;-47
2021/04/16 06:04:30;;;;;;;6.45;1.52;;;6.50;97.90;;;;;;5032410;28;20623;-51
2021/04/16 06:06:55;;;;;;;4.75;2.33;;;6.80;97.40;;;;;;5042109;28;20032;-48
2021/04/16 06:09:21;;;;;;;8.30;1.90;;;7.10;96.70;;;;;;5051217;28;20100;-52
2021/04/16 06:11:46;;;;;;;4.15;1.50;;;7.30;94.40;;;;;;5052276;28;20025;-51
2021/04/16 06:14:12;;;;;;;2.40;1.20;;;7.60;93.90;;;;;;5052344;28;20040;-49
2021/04/16 06:16:38;;;;;;;6.07;1.52;;;7.80;92.30;;;;;;5052438;28;20040;-53
2021/04/16 06:19:04;;;;;;;5.90;1.60;;;8.10;90.90;;;;;;5052390;28;20029;-51
2021/04/16 06:21:30;;;;;;;6.97;1.67;;;8.50;90.40;;;;;;5052247;28;20373;-49
2021/04/16 06:23:56;;;;;;;5.03;1.38;;;9.00;89.80;;;;;;5051240;28;20032;-51
2021/04/16 06:26:21;;;;;;;4.38;1.42;;;9.50;85.90;;;;;;5052055;28;20480;-53
2021/04/16 06:28:47;;;;;;;3.63;1.40;;;9.90;84.20;;;;;;5052288;28;20033;-53
2021/04/16 06:31:15;;;;;;;3.45;1.45;;;10.50;83.20;;;;;;5052197;28;20040;-52
2021/04/16 06:33:40;;;;;;;4.10;1.00;;;11.10;81.60;;;;;;5052228;28;20357;-54
2021/04/16 06:36:09;;;;;;;5.35;1.30;;;11.90;79.50;;;;;;5052178;28;20036;-54
2021/04/16 06:38:37;;;;;;;6.90;2.03;;;12.10;73.60;;;;;;5051885;28;20380;-52
2021/04/16 06:41:10;;;;;;;2.72;1.30;;;11.70;75.10;;;;;;5051014;28;20032;-55
2021/04/16 06:43:44;;;;;;;5.88;1.98;;;11.30;76.90;;;;;;5052060;28;20029;-53
2021/04/16 06:46:30;;;;;;;5.63;1.60;;;10.80;75.70;;;;;;5051959;28;20082;-52
2021/04/16 06:49:00;;;;;;;4.15;1.40;;;10.50;78.40;;;;;;5052071;28;20048;-55
2021/04/16 06:51:30;;;;;;;12.13;3.20;;;10.00;76.70;;;;;;5042543;28;20080;-54
2021/04/16 06:54:02;;;;;;;6.53;1.98;;;9.80;77.50;;;;;;5031255;28;20113;-53
2021/04/16 06:56:41;;;;;;;4.63;1.63;;;9.60;77.30;;;;;;5031796;28;20108;-52
2021/04/16 06:59:15;;;;;;;4.78;1.45;;;9.50;77.90;;;;;;5032153;28;20079;-55
2021/04/16 07:01:45;;;;;;;5.35;2.00;;;9.50;78.50;;;;;;5014425;28;20279;-54
2021/04/16 07:04:35;;;;;;;4.45;1.75;;;9.60;79.30;;;;;;5032008;28;20049;-54
2021/04/16 07:07:10;;;;;;;5.93;1.40;;;9.70;77.90;;;;;;5042416;28;20040;-56
2021/04/16 07:09:39;;;;;;;1.45;1.02;;;9.90;78.50;;;;;;5033240;28;20375;-52
2021/04/16 07:12:13;;;;;;;4.63;1.38;;;10.10;78.10;;;;;;5051603;28;20025;-55
2021/04/16 07:14:54;;;;;;;5.88;1.20;;;10.20;77.30;;;;;;5054830;28;20484;-57
2021/04/16 07:17:27;;;;;;;5.90;2.00;;;10.30;75.40;;;;;;5055358;28;20040;-55
2021/04/16 07:19:52;;;;;;;5.80;1.70;;;10.10;75.80;;;;;;5052476;28;20029;-55
2021/04/16 07:22:36;;;;;;;6.95;1.25;;;9.70;76.20;;;;;;5055217;28;20325;-54
2021/04/16 07:25:21;;;;;;;3.42;1.10;;;9.50;76.40;;;;;;5054771;28;20287;-55
2021/04/16 07:27:52;;;;;;;8.90;1.27;;;9.40;77.90;;;;;;5055318;28;20032;-55
2021/04/16 07:30:45;;;;;;;4.38;1.65;;;9.40;78.70;;;;;;5055286;28;20059;-55
2021/04/16 07:33:26;;;;;;;6.07;1.65;;;9.30;78.50;;;;;;5055279;28;20063;-56
2021/04/16 07:36:11;;;;;;;5.68;1.70;;;9.10;78.10;;;;;;5055236;28;20027;-56
2021/04/16 07:38:37;;;;;;;4.00;1.33;;;9.00;78.30;;;;;;5036811;28;20032;-54
2021/04/16 07:41:21;;;;;;;7.85;2.10;;;8.80;79.10;;;;;;5036047;28;20025;-55
2021/04/16 07:43:53;;;;;;;4.07;1.63;;;8.60;79.40;;;;;;5055009;28;20032;-54
2021/04/16 07:46:27;;;;;;;5.55;1.73;;;8.60;79.40;;;;;;5055141;28;20025;-55
2021/04/16 07:49:12;;;;;;;3.58;1.20;;;8.60;79.60;;;;;;5054899;28;20068;-55
2021/04/16 07:51:39;;;;;;;4.97;1.58;;;8.50;80.10;;;;;;5043736;28;20021;-55
2021/04/16 07:54:21;;;;;;;3.97;1.70;;;8.60;79.80;;;;;;5034067;28;20032;-53
2021/04/16 07:56:48;;;;;;;3.40;2.05;;;8.70;79.50;;;;;;5034622;28;20035;-57
2021/04/16 07:59:16;;;;;;;3.78;1.60;;;8.80;79.40;;;;;;5042035;28;20549;-60
2021/04/16 08:01:48;;;;;;;4.07;1.30;;;8.80;79.70;;;;;;5053574;28;20044;-58
2021/04/16 08:04:32;;;;;;;5.75;1.88;;;8.90;79.70;;;;;;5053994;28;20048;-58
2021/04/16 08:07:16;;;;;;;2.83;1.27;;;9.10;79.20;;;;;;5044260;28;20021;-57
2021/04/16 08:09:42;;;;;;;4.85;1.52;;;9.20;79.30;;;;;;5033544;28;20764;-53
2021/04/16 08:12:07;;;;;;;5.55;1.63;;;9.10;78.70;;;;;;5016522;28;20102;-56
2021/04/16 08:14:35;;;;;;;3.95;1.63;;;9.00;78.70;;;;;;5034245;28;20056;-55
2021/04/16 08:17:03;;;;;;;6.25;1.30;;;9.00;79.10;;;;;;5034227;28;20037;-54
2021/04/16 08:19:35;;;;;;;3.40;1.20;;;9.00;79.30;;;;;;5034155;28;20064;-56
2021/04/16 08:22:09;;;;;;;5.82;1.52;;;9.10;79.50;;;;;;5034205;28;20524;-55
2021/04/16 08:25:00;;;;;;;4.03;1.20;;;9.20;78.50;;;;;;5014989;28;20377;-53
2021/04/16 08:27:51;;;;;;;4.40;1.85;;;9.30;77.50;;;;;;5016169;28;20477;-56
2021/04/16 08:30:25;;;;;;;3.97;1.55;;;9.50;77.00;;;;;;5034295;28;20037;-51
2021/04/16 08:33:17;;;;;;;5.28;1.55;;;9.60;76.70;;;;;;5033897;28;20025;-55
2021/04/16 08:35:48;;;;;;;3.38;1.17;;;9.70;75.70;;;;;;5016252;28;20395;-56
2021/04/16 08:38:18;;;;;;;6.35;1.58;;;9.90;76.30;;;;;;5033862;28;20025;-55
2021/04/16 08:40:46;;;;;;;3.55;1.70;;;9.90;75.30;;;;;;5032887;28;20444;-52
2021/04/16 08:43:31;;;;;;;3.10;1.10;;;9.90;75.10;;;;;;5033719;28;20025;-53
2021/04/16 08:45:59;;;;;;;4.60;1.17;;;10.10;75.50;;;;;;5033550;28;20029;-53
2021/04/16 08:48:32;;;;;;;5.80;1.50;;;10.20;73.30;;;;;;5033671;28;20048;-52
2021/04/16 08:51:02;;;;;;;4.13;1.50;;;10.10;73.70;;;;;;5034221;28;20036;-54
2021/04/16 08:53:27;;;;;;;6.40;1.67;;;10.10;73.80;;;;;;5033610;28;20466;-53
2021/04/16 08:55:53;;;;;;;3.85;2.00;;;10.10;73.30;;;;;;5032736;28;20079;-56
2021/04/16 08:58:27;;;;;;;4.40;2.08;;;9.90;73.30;;;;;;5033470;28;20385;-57
2021/04/16 09:00:57;;;;;;;2.67;1.20;;;10.00;73.90;;;;;;5034003;28;20377;-54
2021/04/16 09:03:41;;;;;;;6.35;1.50;;;10.10;73.60;;;;;;5033370;28;20481;-54
2021/04/16 09:06:08;;;;;;;3.67;1.42;;;10.20;72.90;;;;;;5036627;28;20525;-48
2021/04/16 09:08:40;;;;;;;7.07;1.30;;;10.20;73.10;;;;;;5053286;28;20040;-52
2021/04/16 09:11:08;;;;;;;2.72;1.15;;;10.30;73.60;;;;;;5053346;28;20021;-53
2021/04/16 09:13:40;;;;;;;5.40;1.33;;;10.30;72.60;;;;;;5053110;28;20029;-53
2021/04/16 09:16:14;;;;;;;3.38;1.65;;;10.30;73.30;;;;;;5053477;28;20100;-55
2021/04/16 09:18:40;;;;;;;4.28;1.35;;;10.30;72.60;;;;;;5053027;28;20461;-52
2021/04/16 09:21:05;;;;;;;4.20;1.20;;;10.30;73.20;;;;;;5053264;28;20025;-53
2021/04/16 09:23:34;;;;;;;4.47;1.10;;;10.30;73.10;;;;;;5035047;28;20037;-54
2021/04/16 09:26:00;;;;;;;5.13;1.45;;;10.30;73.40;;;;;;5052326;28;20025;-51
2021/04/16 09:28:25;;;;;;;2.13;1.13;;;10.40;73.50;;;;;;5052959;28;20032;-54
2021/04/16 09:30:55;;;;;;;5.10;1.65;;;10.40;73.00;;;;;;5053027;28;20024;-54
2021/04/16 09:33:21;;;;;;;3.08;1.05;;;10.60;72.40;;;;;;5052896;28;20071;-54
2021/04/16 09:35:55;;;;;;;6.60;1.40;;;10.90;72.80;;;;;;5052895;28;20025;-50
2021/04/16 09:38:24;;;;;;;7.95;1.67;;;11.20;70.60;;;;;;5052025;28;20033;-55
2021/04/16 09:41:18;;;;;;;2.42;1.10;;;11.30;70.50;;;;;;5051971;28;20108;-53
2021/04/16 09:43:45;;;;;;;5.53;1.90;;;11.50;68.60;;;;;;5052666;28;20059;-50
2021/04/16 09:46:44;;;;;;;5.82;1.55;;;11.50;69.70;;;;;;5034855;28;20028;-50
2021/04/16 09:49:23;;;;;;;5.47;1.58;;;11.50;67.80;;;;;;5052662;28;20017;-55
2021/04/16 09:51:48;;;;;;;6.07;1.80;;;11.40;69.40;;;;;;5040175;28;20029;-54
2021/04/16 09:54:20;;;;;;;8.05;1.90;;;11.60;69.50;;;;;;5014070;28;20037;-54
2021/04/16 09:57:01;;;;;;;3.92;1.58;;;11.70;68.60;;;;;;5032500;28;20053;-49
2021/04/16 09:59:44;;;;;;;4.45;1.15;;;11.70;66.70;;;;;;5032523;28;20100;-51
2021/04/16 10:02:12;;;;;;;3.92;1.55;;;11.70;67.10;;;;;;5032796;28;20026;-50
2021/04/16 10:05:03;;;;;;;5.28;1.65;;;11.80;67.20;;;;;;5032403;28;20042;-51
2021/04/16 10:07:40;;;;;;;4.22;1.30;;;12.10;66.90;;;;;;5046934;28;20507;-54
2021/04/16 10:10:14;;;;;;;3.17;1.30;;;12.10;64.70;;;;;;5051582;28;20024;-48
2021/04/16 10:12:40;;;;;;;5.00;1.10;;;12.10;66.20;;;;;;5052367;28;20031;-53
2021/04/16 10:15:24;;;;;;;2.90;1.20;;;12.30;65.80;;;;;;5052370;28;20029;-51
2021/04/16 10:18:00;;;;;;;2.35;1.20;;;12.50;64.50;;;;;;5052036;28;20037;-49
2021/04/16 10:20:28;;;;;;;2.22;1.10;;;12.80;63.80;;;;;;5034545;28;20035;-50
2021/04/16 10:23:04;;;;;;;3.60;1.70;;;13.00;64.50;;;;;;5052296;28;20086;-50
2021/04/16 10:26:36;;;;;;;;;;;13.20;62.30;;;;;;5033963;28;20017;-48
2021/04/16 10:29:34;;;;;;;5.32;1.40;;;13.20;60.80;;;;;;5052001;28;19912;-51
2021/04/16 10:38:35;;;;;;;5.68;1.50;;;12.90;61.20;;;;;;5052129;28;20029;-52
2021/04/16 10:59:08;;;;;;;3.28;1.05;;;12.20;62.80;;;;;;5036253;28;20555;-54
2021/04/16 11:07:59;;;;;;;6.32;1.75;;;12.30;60.80;;;;;;5035916;28;20565;-49
2021/04/16 11:17:04;;;;;;;19.83;4.15;;;12.50;60.10;;;;;;5035870;28;20049;-48
2021/04/16 11:20:06;;;;;;;7.47;2.63;;;12.70;59.30;;;;;;5035303;28;20492;-54
2021/04/16 11:45:10;;;;;;;3.95;1.55;;;12.40;58.20;;;;;;5034924;28;20036;-52
2021/04/16 12:40:00;;;;;;;3.38;0.90;;;13.60;54.20;;;;;;4952828;28;20030;-49
2021/04/16 12:42:25;;;;;;;4.53;1.20;;;13.60;54.20;;;;;;4953839;28;20057;-52
2021/04/16 12:44:53;;;;;;;2.13;1.10;;;13.60;54.20;;;;;;5043117;28;20080;-51
2021/04/16 12:47:28;;;;;;;3.38;1.00;;;13.60;55.00;;;;;;5053877;28;20155;-51
2021/04/16 12:49:54;;;;;;;3.28;1.05;;;13.50;54.80;;;;;;5053441;28;20025;-51
2021/04/16 12:52:22;;;;;;;2.83;1.08;;;13.50;55.30;;;;;;5037119;28;20053;-54
2021/04/16 12:54:52;;;;;;;4.22;1.52;;;13.60;55.10;;;;;;5032967;28;20468;-51
2021/04/16 12:57:41;;;;;;;1.52;0.95;;;13.80;54.50;;;;;;5033845;28;20060;-53
2021/04/16 13:00:22;;;;;;;4.50;1.58;;;13.80;54.10;;;;;;5020141;28;20041;-51
2021/04/16 13:03:14;;;;;;;2.22;1.30;;;13.80;53.40;;;;;;5033551;28;20036;-51
2021/04/16 13:05:40;;;;;;;2.60;1.00;;;13.70;53.50;;;;;;5033095;28;20045;-51
2021/04/16 13:08:07;;;;;;;4.72;1.17;;;13.50;53.80;;;;;;5053063;28;20074;-53
2021/04/16 13:10:33;;;;;;;4.45;1.23;;;13.60;55.00;;;;;;5052667;28;20029;-49
2021/04/16 13:12:58;;;;;;;3.58;1.30;;;13.60;52.60;;;;;;5053168;28;20483;-50
2021/04/16 13:15:24;;;;;;;2.60;1.00;;;13.50;53.10;;;;;;5053458;28;20035;-49
2021/04/16 13:17:57;;;;;;;4.63;1.10;;;13.40;52.90;;;;;;5053227;28;20112;-53
2021/04/16 13:20:24;;;;;;;4.15;1.50;;;13.50;51.90;;;;;;5053161;28;20021;-50
2021/04/16 13:22:50;;;;;;;4.70;1.63;;;13.50;52.10;;;;;;5053326;28;20067;-48
2021/04/16 13:25:18;;;;;;;5.97;1.73;;;13.50;51.10;;;;;;5052082;28;20032;-54
2021/04/16 13:27:45;;;;;;;3.55;1.20;;;13.40;51.10;;;;;;5053157;28;20029;-50
2021/04/16 13:30:12;;;;;;;2.67;0.98;;;13.40;51.90;;;;;;5052962;28;20076;-50
2021/04/16 13:32:46;;;;;;;4.95;1.55;;;13.50;51.90;;;;;;5053064;28;20029;-54
2021/04/16 13:35:16;;;;;;;3.97;1.40;;;13.60;51.50;;;;;;5052767;28;20025;-50
2021/04/16 13:37:41;;;;;;;2.10;1.17;;;13.70;51.90;;;;;;5052949;28;20036;-51
2021/04/16 13:40:09;;;;;;;2.53;1.17;;;13.60;52.30;;;;;;5051729;28;20535;-49
2021/04/16 13:42:35;;;;;;;2.90;1.20;;;13.60;52.40;;;;;;5053032;28;20029;-51
2021/04/16 13:45:00;;;;;;;5.78;1.65;;;13.70;52.70;;;;;;5052793;28;20043;-51
2021/04/16 13:47:28;;;;;;;3.00;1.25;;;13.70;52.80;;;;;;5053001;28;20422;-52
2021/04/16 13:49:56;;;;;;;4.22;1.25;;;13.70;52.20;;;;;;5052691;28;20104;-50
2021/04/16 13:52:22;;;;;;;6.10;2.30;;;13.60;52.20;;;;;;5017935;28;20030;-51
2021/04/16 13:54:48;;;;;;;2.90;1.38;;;13.70;52.70;;;;;;5038393;28;20511;-50
2021/04/16 13:57:15;;;;;;;3.83;1.27;;;13.60;51.70;;;;;;5052386;28;20040;-52
2021/04/16 13:59:42;;;;;;;2.55;1.15;;;13.50;51.90;;;;;;5052494;28;20032;-48
2021/04/16 14:02:07;;;;;;;5.85;1.52;;;13.50;52.00;;;;;;5052286;28;20089;-50
2021/04/16 14:04:36;;;;;;;5.03;1.55;;;13.40;52.20;;;;;;5052232;28;20045;-48
2021/04/16 14:07:06;;;;;;;3.13;1.02;;;13.30;52.70;;;;;;5052095;28;20029;-49
2021/04/16 14:09:33;;;;;;;3.85;1.52;;;13.30;53.10;;;;;;5051545;28;20476;-48
2021/04/16 14:11:59;;;;;;;7.70;1.55;;;13.30;53.30;;;;;;5049767;28;20028;-50
2021/04/16 14:14:28;;;;;;;4.18;1.50;;;13.20;53.40;;;;;;5052256;28;20051;-51
2021/04/16 14:17:04;;;;;;;5.63;2.20;;;13.20;53.70;;;;;;5052384;28;20062;-51
2021/04/16 14:19:53;;;;;;;4.57;1.63;;;13.10;53.40;;;;;;5052154;28;20021;-50
2021/04/16 14:22:33;;;;;;;4.38;1.10;;;13.10;53.20;;;;;;5052005;28;20029;-47
2021/04/16 14:24:59;;;;;;;2.78;1.00;;;13.00;53.60;;;;;;5051042;28;20472;-47
2021/04/16 14:27:24;;;;;;;2.45;1.40;;;13.00;53.40;;;;;;5034235;28;20071;-47
2021/04/16 14:29:50;;;;;;;6.70;1.13;;;12.90;52.90;;;;;;5052209;28;20028;-48
2021/04/16 14:32:17;;;;;;;3.15;1.45;;;12.90;52.10;;;;;;5051795;28;20117;-50
2021/04/16 14:34:42;;;;;;;2.85;1.20;;;12.60;51.30;;;;;;5052161;28;20393;-51
2021/04/16 14:37:08;;;;;;;2.70;1.10;;;12.60;51.50;;;;;;5051949;28;20025;-47
2021/04/16 14:39:33;;;;;;;3.00;1.08;;;12.70;51.20;;;;;;5051054;28;20030;-49
2021/04/16 14:42:00;;;;;;;2.25;1.02;;;12.60;50.80;;;;;;5051539;28;20151;-51
2021/04/16 14:44:26;;;;;;;2.45;1.13;;;12.60;50.90;;;;;;5051995;28;20028;-48
2021/04/16 14:46:56;;;;;;;4.45;2.40;;;12.60;50.50;;;;;;5051634;28;20028;-45
2021/04/16 14:49:27;;;;;;;3.90;2.45;;;12.50;50.90;;;;;;5051870;28;20017;-47
2021/04/16 14:51:53;;;;;;;3.42;1.17;;;12.50;51.30;;;;;;5038740;28;20025;-46
2021/04/16 14:54:23;;;;;;;10.00;4.80;;;12.40;51.60;;;;;;5030947;28;20101;-44
2021/04/16 14:56:49;;;;;;;11.32;5.60;;;12.10;51.90;;;;;;5031885;28;20024;-44
2021/04/16 14:59:44;;;;;;;4.05;2.28;;;12.00;52.30;;;;;;5031636;28;20108;-46